Other Surface Observations
Issued by NWS

Home | Current Version | Previous Version | Text Only | Print | Product List | Glossary On
Versions: 1 2 3 4 5 6 7 8 9 10 11 12 13 14 15 16 17 18 19 20 21 22 23 24 25 26 27 28 29 30 31 32 33 34 35 36 37 38 39 40 41 42 43 44 45 46 47 48 49 50
000
SXUS51 KWBC 190659
OSONT
:SHEF ENCODED 6-MINUTE NOS MET DATA
:NATIONAL WATER LEVEL OBSERVATION NETWORK (NWLON)
:TA(AIR TEMP DEG F)  SLP(SEA LEVEL PRESSURE INCHES)
:UD(WIND DIRECTION WHOLE DEGREES) US (WIND SPEED MPH)
:TW(WATER TEMP DEG F) UG(WIND GUSTS MPH) WC(CONDUCTIVITY uMHOS/CM)
:-9999 (MISSING VALUES)
:PROVIDED BY DOC/NOAA/NOS/CO-OPS, (301) 713-2540
:corms@noaa.gov
.E FRCB6 20190519 Z DH0630/TAIRG/DIN06/   71/   71/   71
.E FRCB6 20190519 Z DH0630/PLIRG/DIN06/30.12/30.12/30.12
.E FRCB6 20190519 Z DH0630/TWIRG/DIN06/   76/   76/   76
.E BEPB6 20190519 Z DH0636/TAIRG/DIN06/   72/   72
.E BEPB6 20190519 Z DH0636/PLIRG/DIN06/30.12/30.12
.E BEPB6 20190519 Z DH0636/USIRG/DIN06/   12/   13
.E BEPB6 20190519 Z DH0636/UDIRG/DIN06/  290/  286
.E BEPB6 20190519 Z DH0636/UGIRG/DIN06/   15/   17
.E BEPB6 20190519 Z DH0636/TWIRG/DIN06/   76/   76
.E PSBM1 20190519 Z DH0630/TAIRG/DIN06/   42/   42
.E PSBM1 20190519 Z DH0630/PLIRG/DIN06/30.12/30.12
.E PSBM1 20190519 Z DH0630/USIRG/DIN06/    0/    0
.E PSBM1 20190519 Z DH0630/UDIRG/DIN06/  141/  164
.E PSBM1 20190519 Z DH0630/UGIRG/DIN06/    0/    1
.E PSBM1 20190519 Z DH0630/TWIRG/DIN06/   41/   41
.E CFWM1 20190519 Z DH0636/TAIRG/DIN06/   44/   44
.E CFWM1 20190519 Z DH0636/PLIRG/DIN06/30.07/30.07
.E CFWM1 20190519 Z DH0636/USIRG/DIN06/    2/    3
.E CFWM1 20190519 Z DH0636/UDIRG/DIN06/  272/  272
.E CFWM1 20190519 Z DH0636/UGIRG/DIN06/    4/    4
.E CFWM1 20190519 Z DH0636/TWIRG/DIN06/   42/   42
.E ATGM1 20190519 Z DH0642/TAIRG/DIN06/   51/   51
.E ATGM1 20190519 Z DH0642/PLIRG/DIN06/30.09/30.09
.E ATGM1 20190519 Z DH0642/USIRG/DIN06/    8/    9
.E ATGM1 20190519 Z DH0642/UDIRG/DIN06/  263/  270
.E ATGM1 20190519 Z DH0642/UGIRG/DIN06/   15/   15
.E ATGM1 20190519 Z DH0642/TWIRG/DIN06/   45/   45
.E CASM1 20190519 Z DH0636/TAIRG/DIN06/   50/   50
.E CASM1 20190519 Z DH0636/TWIRG/DIN06/   47/   47
.E BHBM3 20190519 Z DH0630/TAIRG/DIN06/   55/   55
.E BHBM3 20190519 Z DH0630/PLIRG/DIN06/30.07/30.07
.E FRVM3 20190519 Z DH0636/TAIRG/DIN06/   55/   55
.E FRVM3 20190519 Z DH0636/PLIRG/DIN06/30.10/30.10
.E FRVM3 20190519 Z DH0636/WCIRG/DIN06/29910/30230
.E FRVM3 20190519 Z DH0636/TWIRG/DIN06/   56/   56
.A BLTM3 20190519 Z DH0648/TAIRP    55/UGIRP    13/PLIRP 30.09/UDIRP   186/USIRP     8/TWIRP -9999/WCIRP -9999
.E BLTM3 20190519 Z DH0642/TAIRG/DIN06/   55/   55
.E BLTM3 20190519 Z DH0642/PLIRG/DIN06/30.09/30.09
.E BLTM3 20190519 Z DH0642/USIRG/DIN06/    6/    8
.E BLTM3 20190519 Z DH0642/UDIRG/DIN06/  186/  186
.E BLTM3 20190519 Z DH0642/UGIRG/DIN06/    9/   13
.E FRXM3 20190519 Z DH0636/TAIRG/DIN06/   55/   55
.E BZBM3 20190519 Z DH0636/TAIRP/DIN06/   53/   54/   54
.E BZBM3 20190519 Z DH0636/PLIRP/DIN06/30.11/30.11/30.11
.E BZBM3 20190519 Z DH0636/TWIRP/DIN06/   54/   54/   54
.E BZBM3 20190519 Z DH0636/TAIRG/DIN06/   53/   54
.E BZBM3 20190519 Z DH0636/PLIRG/DIN06/30.11/30.11
.E BZBM3 20190519 Z DH0636/TWIRG/DIN06/   54/   54
.E NTKM3 20190519 Z DH0636/TAIRP/DIN06/   50/   50/   50
.E NTKM3 20190519 Z DH0636/PLIRP/DIN06/30.12/30.12/30.13
.E NTKM3 20190519 Z DH0636/USIRP/DIN06/    2/    3/    2
.E NTKM3 20190519 Z DH0636/UDIRP/DIN06/  156/  159/  155
.E NTKM3 20190519 Z DH0636/UGIRP/DIN06/    4/    4/    6
.E NTKM3 20190519 Z DH0636/TWIRP/DIN06/   57/   57/   57
.E PRUR1 20190519 Z DH0642/TAIRG/DIN06/   55/   55
.E NWPR1 20190519 Z DH0630/TAIRG/DIN06/   54/   54/   54
.E NWPR1 20190519 Z DH0630/PLIRG/DIN06/30.09/30.09/30.09
.E NWPR1 20190519 Z DH0630/USIRG/DIN06/   11/   10/   12
.E NWPR1 20190519 Z DH0630/UDIRG/DIN06/  172/  175/  185
.E NWPR1 20190519 Z DH0630/UGIRG/DIN06/   13/   13/   13
.E NWPR1 20190519 Z DH0630/WCIRG/DIN06/34370/34370/34370
.E NWPR1 20190519 Z DH0630/TWIRG/DIN06/   51/   51/   51
.A CPTR1 20190519 Z DH0648/TAIRP    54/UGIRP    16/PLIRP 30.09/UDIRP   180/USIRP    14/TWIRP    56/WCIRP -9999
.A FOXR1 20190519 Z DH0648/TAIRP    54/UGIRP     7/PLIRP 30.07/UDIRP   194/USIRP     4/TWIRP    55/WCIRP -9999
.E QPTR1 20190519 Z DH0630/TAIRG/DIN06/   54/   54/   54
.E QPTR1 20190519 Z DH0630/PLIRG/DIN06/30.09/30.09/30.09
.E QPTR1 20190519 Z DH0630/USIRG/DIN06/   14/   14/   12
.E QPTR1 20190519 Z DH0630/UDIRG/DIN06/  184/  187/  194
.E QPTR1 20190519 Z DH0630/UGIRG/DIN06/   16/   16/   14
.E QPTR1 20190519 Z DH0630/WCIRG/DIN06/31200/31390/31430
.E QPTR1 20190519 Z DH0630/TWIRG/DIN06/   55/   55/   55
.A NLNC3 20190519 Z DH0648/TAIRP -9999/UGIRP     9/PLIRP -9999/UDIRP   190/USIRP     7/TWIRP -9999/WCIRG -9999
.E NWHC3 20190519 Z DH0648/TAIRP/DIN06/   57/   57
.E NWHC3 20190519 Z DH0648/PLIRP/DIN06/30.08/30.08
.E NWHC3 20190519 Z DH0648/USIRP/DIN06/    5/    6
.E NWHC3 20190519 Z DH0648/UDIRP/DIN06/  166/  163
.E NWHC3 20190519 Z DH0648/UGIRP/DIN06/    6/    7
.E NWHC3 20190519 Z DH0648/TWIRP/DIN06/   57/   57
.E BRHC3 20190519 Z DH0636/TAIRG/DIN06/   59/   59
.E BRHC3 20190519 Z DH0636/PLIRG/DIN06/30.06/30.06
.E BRHC3 20190519 Z DH0636/USIRG/DIN06/    5/    5
.E BRHC3 20190519 Z DH0636/UDIRG/DIN06/  247/  255
.E BRHC3 20190519 Z DH0636/UGIRG/DIN06/    8/    9
.E BRHC3 20190519 Z DH0636/TWIRG/DIN06/   55/   56
.A MTKN6 20190519 Z DH0642/TAIRG    54/UGIRG -9999/PLIRG 30.11/UDIRG -9999/USIRG -9999/TWIRG    55/WCIRG -9999
.E KPTN6 20190519 Z DH0648/PLIRP/DIN06/30.11/30.11
.E KPTN6 20190519 Z DH0648/TWIRP/DIN06/   58/   58
.E KPTN6 20190519 Z DH0636/PLIRG/DIN06/30.11/30.11
.E KPTN6 20190519 Z DH0636/TWIRG/DIN06/   58/   58
.E BATN6 20190519 Z DH0636/TAIRP/DIN06/   61/   61/   61
.E BATN6 20190519 Z DH0636/PLIRP/DIN06/30.08/30.08/30.08
.E BATN6 20190519 Z DH0636/TWIRP/DIN06/   58/   57/   57
.E TKPN6 20190519 Z DH0636/TAIRG/DIN06/   58/   58
.E TKPN6 20190519 Z DH0636/PLIRG/DIN06/30.04/30.04
.E TKPN6 20190519 Z DH0636/USIRG/DIN06/    8/    8
.E TKPN6 20190519 Z DH0636/UDIRG/DIN06/  197/  201
.E TKPN6 20190519 Z DH0636/UGIRG/DIN06/   11/   11
.E TKPN6 20190519 Z DH0636/TWIRG/DIN06/   56/   56
.E BGNN6 20190519 Z DH0636/TAIRG/DIN06/   60/   60
.E BGNN6 20190519 Z DH0636/PLIRG/DIN06/30.07/30.08
.E BGNN6 20190519 Z DH0636/TWIRG/DIN06/   59/   59
.E MHRN6 20190519 Z DH0642/USIRG/DIN06/    5/    4
.E MHRN6 20190519 Z DH0642/UDIRG/DIN06/  191/  180
.E MHRN6 20190519 Z DH0642/UGIRG/DIN06/    7/    7
.E ROBN4 20190519 Z DH0648/TAIRP/DIN06/   60/   60
.E ROBN4 20190519 Z DH0648/PLIRP/DIN06/30.07/30.07
.E ROBN4 20190519 Z DH0648/USIRP/DIN06/    3/    3
.E ROBN4 20190519 Z DH0648/UDIRP/DIN06/  172/  175
.E ROBN4 20190519 Z DH0648/UGIRP/DIN06/    4/    4
.E ROBN4 20190519 Z DH0642/TAIRG/DIN06/   60/   60
.E ROBN4 20190519 Z DH0642/PLIRG/DIN06/30.07/30.07
.E ROBN4 20190519 Z DH0642/USIRG/DIN06/    3/    3
.E ROBN4 20190519 Z DH0642/UDIRG/DIN06/  168/  172
.E ROBN4 20190519 Z DH0642/UGIRG/DIN06/    3/    4
.E SDHN4 20190519 Z DH0648/TAIRP/DIN06/   61/   61
.E SDHN4 20190519 Z DH0648/PLIRP/DIN06/30.11/30.11
.E SDHN4 20190519 Z DH0648/USIRP/DIN06/    5/    6
.E SDHN4 20190519 Z DH0648/UDIRP/DIN06/  218/  229
.E SDHN4 20190519 Z DH0648/UGIRP/DIN06/    6/    7
.E SDHN4 20190519 Z DH0648/TWIRP/DIN06/   62/   62
.E SDHN4 20190519 Z DH0636/TAIRG/DIN06/   61/   60
.E SDHN4 20190519 Z DH0636/PLIRG/DIN06/30.11/30.11
.E SDHN4 20190519 Z DH0636/USIRG/DIN06/    5/    5
.E SDHN4 20190519 Z DH0636/UDIRG/DIN06/  238/  226
.E SDHN4 20190519 Z DH0636/UGIRG/DIN06/    7/    7
.E SDHN4 20190519 Z DH0636/TWIRG/DIN06/   62/   62
.A ACYN4 20190519 Z DH0642/TAIRG    59/UGIRG -9999/PLIRG 30.08/UDIRG -9999/USIRG -9999/TWIRG    59/WCIRG -9999
.E CMAN4 20190519 Z DH0648/TAIRP/DIN06/   62/   62
.E CMAN4 20190519 Z DH0648/PLIRP/DIN06/30.04/30.04
.E CMAN4 20190519 Z DH0648/USIRP/DIN06/   10/    9
.E CMAN4 20190519 Z DH0648/UDIRP/DIN06/  149/  151
.E CMAN4 20190519 Z DH0648/UGIRP/DIN06/   13/   14
.E CMAN4 20190519 Z DH0648/TWIRP/DIN06/   60/   60
.E CMAN4 20190519 Z DH0642/TAIRG/DIN06/   62/   62
.E CMAN4 20190519 Z DH0642/PLIRG/DIN06/30.04/30.04
.E CMAN4 20190519 Z DH0642/USIRG/DIN06/    8/   10
.E CMAN4 20190519 Z DH0642/UDIRG/DIN06/  143/  150
.E CMAN4 20190519 Z DH0642/UGIRG/DIN06/   11/   13
.E CMAN4 20190519 Z DH0642/WCIRG/DIN06/34650/34520
.E CMAN4 20190519 Z DH0642/TWIRG/DIN06/   60/   60
.E SJSN4 20190519 Z DH0636/TAIRG/DIN06/   63/   63/   63
.E SJSN4 20190519 Z DH0636/PLIRG/DIN06/30.04/30.05/30.05
.E SJSN4 20190519 Z DH0636/USIRG/DIN06/    9/    9/    8
.E SJSN4 20190519 Z DH0636/UDIRG/DIN06/  157/  162/  162
.E SJSN4 20190519 Z DH0636/UGIRG/DIN06/   12/   11/   10
.E SJSN4 20190519 Z DH0636/TWIRG/DIN06/   65/   65/   65
.A BDRN4 20190519 Z DH0648/TAIRP -9999/UGIRP     3/PLIRP -9999/UDIRP   159/USIRP     2/TWIRP -9999/WCIRG -9999
.E BDRN4 20190519 Z DH0630/TAIRG/DIN06/   58/   58/   58
.E BDRN4 20190519 Z DH0630/PLIRG/DIN06/30.06/30.06/30.06
.E BDRN4 20190519 Z DH0630/TWIRG/DIN06/   59/   59/   59
.E MRCP1 20190519 Z DH0630/TAIRG/DIN06/   62/   62/   62
.E MRCP1 20190519 Z DH0630/PLIRG/DIN06/30.04/30.04/30.04
.E MRCP1 20190519 Z DH0630/TWIRG/DIN06/   61/   61/   61
.E PHBP1 20190519 Z DH0636/TAIRG/DIN06/   61/   61
.E PHBP1 20190519 Z DH0636/PLIRG/DIN06/30.04/30.04
.E PHBP1 20190519 Z DH0636/TWIRG/DIN06/   57/   57
.A BDSP1 20190519 Z DH0642/TAIRG    61/UGIRG -9999/PLIRG 30.06/UDIRG -9999/USIRG -9999/TWIRG    59/WCIRG -9999
.E NBLP1 20190519 Z DH0636/TAIRG/DIN06/   57/   57
.E NBLP1 20190519 Z DH0636/PLIRG/DIN06/30.08/30.08
.E NBLP1 20190519 Z DH0636/USIRG/DIN06/    2/    1
.E NBLP1 20190519 Z DH0636/UDIRG/DIN06/  175/  167
.E NBLP1 20190519 Z DH0636/UGIRG/DIN06/    3/    2
.E NBLP1 20190519 Z DH0636/TWIRG/DIN06/   60/   60
.E DELD1 20190519 Z DH0630/TAIRG/DIN06/   62/   62/   62
.E DELD1 20190519 Z DH0630/PLIRG/DIN06/30.05/30.05/30.05
.E DELD1 20190519 Z DH0630/USIRG/DIN06/    3/    4/    5
.E DELD1 20190519 Z DH0630/UDIRG/DIN06/  141/  142/  149
.E DELD1 20190519 Z DH0630/UGIRG/DIN06/    4/    5/    6
.E DELD1 20190519 Z DH0630/TWIRG/DIN06/   61/   61/   61
.E RDYD1 20190519 Z DH0636/TAIRG/DIN06/   61/   61
.E RDYD1 20190519 Z DH0636/PLIRG/DIN06/30.04/30.03
.E RDYD1 20190519 Z DH0636/TWIRG/DIN06/   64/   64
.A BRND1 20190519 Z DH0648/TAIRP -9999/UGIRP -9999/PLIRP 30.06/UDIRP -9999/USIRP -9999/TWIRP -9999/WCIRP -9999
.A LWSD1 20190519 Z DH0648/TAIRP    63/UGIRP     6/PLIRP 30.05/UDIRP   181/USIRP     5/TWIRP    60/WCIRP -9999
.E LWSD1 20190519 Z DH0636/TAIRG/DIN06/   63/   63
.E LWSD1 20190519 Z DH0636/PLIRG/DIN06/30.05/30.06
.E LWSD1 20190519 Z DH0636/USIRG/DIN06/    5/    4
.E LWSD1 20190519 Z DH0636/UDIRG/DIN06/  180/  182
.E LWSD1 20190519 Z DH0636/UGIRG/DIN06/    8/    6
.E LWSD1 20190519 Z DH0636/WCIRG/DIN06/31730/31720
.E LWSD1 20190519 Z DH0636/TWIRG/DIN06/   60/   60
.E OCIM2 20190519 Z DH0636/TAIRG/DIN06/   62/   62
.E OCIM2 20190519 Z DH0636/PLIRG/DIN06/30.08/30.08
.E OCIM2 20190519 Z DH0636/USIRG/DIN06/    4/    3
.E OCIM2 20190519 Z DH0636/UDIRG/DIN06/  232/  209
.E OCIM2 20190519 Z DH0636/UGIRG/DIN06/    6/    4
.E OCIM2 20190519 Z DH0636/TWIRG/DIN06/   60/   60
.E BISM2 20190519 Z DH0636/TAIRG/DIN06/   67/   67
.E BISM2 20190519 Z DH0636/PLIRG/DIN06/30.05/30.05
.E BISM2 20190519 Z DH0636/USIRG/DIN06/    8/    8
.E BISM2 20190519 Z DH0636/UDIRG/DIN06/  139/  132
.E BISM2 20190519 Z DH0636/UGIRG/DIN06/   12/   10
.E BISM2 20190519 Z DH0636/TWIRG/DIN06/   70/   70
.E CAMM2 20190519 Z DH0636/TAIRG/DIN06/   64/   64
.E CAMM2 20190519 Z DH0636/PLIRG/DIN06/30.05/30.06
.E CAMM2 20190519 Z DH0636/TWIRG/DIN06/   68/   68
.E CHCM2 20190519 Z DH0630/TAIRG/DIN06/   60/   60/   60
.E CHCM2 20190519 Z DH0630/PLIRG/DIN06/30.05/30.06/30.06
.E CHCM2 20190519 Z DH0630/USIRG/DIN06/    2/    1/    2
.E CHCM2 20190519 Z DH0630/UDIRG/DIN06/  140/  159/  237
.E CHCM2 20190519 Z DH0630/UGIRG/DIN06/    3/    2/    2
.E CHCM2 20190519 Z DH0630/WCIRG/DIN06/  740/  730/  730
.E CHCM2 20190519 Z DH0630/TWIRG/DIN06/   67/   67/   67
.E BLTM2 20190519 Z DH0636/TAIRG/DIN06/   67/   67
.E BLTM2 20190519 Z DH0636/PLIRG/DIN06/30.02/30.02
.E BLTM2 20190519 Z DH0636/USIRG/DIN06/    3/    3
.E BLTM2 20190519 Z DH0636/UDIRG/DIN06/  194/  188
.E BLTM2 20190519 Z DH0636/UGIRG/DIN06/    9/    9
.E BLTM2 20190519 Z DH0636/TWIRG/DIN06/   69/   69
.A FSKM2 20190519 Z DH0648/TAIRP    66/UGIRP     9/PLIRP 30.03/UDIRP   139/USIRP     7/TWIRP -9999/WCIRP -9999
.A FSNM2 20190519 Z DH0636/TAIRP    66/UGIRP -9999/PLIRP 30.02/UDIRP -9999/USIRP -9999/TWIRP -9999/WCIRP -9999
.A CPVM2 20190519 Z DH0642/TAIRG    65/UGIRG -9999/PLIRG -9999/UDIRG -9999/USIRG -9999/TWIRG -9999/WCIRG -9999
.E APAM2 20190519 Z DH0636/TAIRP/DIN06/   67/   66/   66
.E APAM2 20190519 Z DH0636/PLIRP/DIN06/30.03/30.02/30.01
.A APAM2 20190519 Z DH0642/TAIRG    66/UGIRG -9999/PLIRG 30.02/UDIRG -9999/USIRG -9999/TWIRG -9999/WCIRG -9999
.A COVM2 20190519 Z DH0648/TAIRP    66/UGIRP     8/PLIRP 30.08/UDIRP   103/USIRP     2/TWIRP -9999/WCIRP -9999
.A SLIM2 20190519 Z DH0648/TAIRP    71/UGIRP    19/PLIRP 30.03/UDIRP   185/USIRP     8/TWIRP    67/WCIRP -9999
.E SLIM2 20190519 Z DH0636/TAIRG/DIN06/   67/   72
.E SLIM2 20190519 Z DH0636/PLIRG/DIN06/30.01/30.01
.E SLIM2 20190519 Z DH0636/USIRG/DIN06/   20/   19
.E SLIM2 20190519 Z DH0636/UDIRG/DIN06/  158/  176
.E SLIM2 20190519 Z DH0636/UGIRG/DIN06/   23/   23
.E SLIM2 20190519 Z DH0636/TWIRG/DIN06/   67/   67
.A PPTM2 20190519 Z DH0642/TAIRP -9999/UGIRP    13/PLIRP -9999/UDIRP   125/USIRP    12/TWIRP -9999/WCIRG -9999
.E WASD2 20190519 Z DH0636/TAIRG/DIN06/   67/   66
.E WASD2 20190519 Z DH0636/PLIRG/DIN06/30.03/30.03
.E WASD2 20190519 Z DH0636/USIRG/DIN06/    0/    2
.E WASD2 20190519 Z DH0636/UDIRG/DIN06/  315/  103
.E WASD2 20190519 Z DH0636/UGIRG/DIN06/    3/    2
.E WASD2 20190519 Z DH0636/TWIRG/DIN06/   65/   65
.E WAHV2 20190519 Z DH0642/TAIRG/DIN06/   67/   67
.E WAHV2 20190519 Z DH0642/PLIRG/DIN06/30.04/30.04
.E WAHV2 20190519 Z DH0642/USIRG/DIN06/    9/   10
.E WAHV2 20190519 Z DH0642/UDIRG/DIN06/  200/  200
.E WAHV2 20190519 Z DH0642/UGIRG/DIN06/   13/   13
.E WAHV2 20190519 Z DH0642/TWIRG/DIN06/   72/   72
.E KPTV2 20190519 Z DH0636/USIRG/DIN06/   11/   11
.E KPTV2 20190519 Z DH0636/UDIRG/DIN06/  167/  166
.E KPTV2 20190519 Z DH0636/UGIRG/DIN06/   13/   13
.E KPTV2 20190519 Z DH0636/TWIRG/DIN06/   68/   68
.A RPLV2 20190519 Z DH0648/TAIRP -9999/UGIRP    13/PLIRP 30.06/UDIRP   127/USIRP    12/TWIRP -9999/WCIRP -9999
.E RPLV2 20190519 Z DH0642/PLIRG/DIN06/30.06/30.06
.E RPLV2 20190519 Z DH0642/USIRG/DIN06/   12/   12
.E RPLV2 20190519 Z DH0642/UDIRG/DIN06/  128/  127
.E RPLV2 20190519 Z DH0642/UGIRG/DIN06/   13/   13
.E NCDV2 20190519 Z DH0636/TAIRG/DIN06/   68/   67
.E NCDV2 20190519 Z DH0636/PLIRG/DIN06/30.01/30.01
.E NCDV2 20190519 Z DH0636/USIRG/DIN06/    2/    2
.E NCDV2 20190519 Z DH0636/UDIRG/DIN06/   17/   53
.E NCDV2 20190519 Z DH0636/UGIRG/DIN06/    3/    4
.E NCDV2 20190519 Z DH0636/TWIRG/DIN06/   73/   73
.E LWTV2 20190519 Z DH0636/TAIRG/DIN06/   68/   68
.E LWTV2 20190519 Z DH0636/PLIRG/DIN06/30.02/30.02
.E LWTV2 20190519 Z DH0636/USIRG/DIN06/    6/    7
.E LWTV2 20190519 Z DH0636/UDIRG/DIN06/  169/  159
.E LWTV2 20190519 Z DH0636/UGIRG/DIN06/    7/    9
.E LWTV2 20190519 Z DH0636/WCIRG/DIN06/ 8060/ 8050
.E LWTV2 20190519 Z DH0636/TWIRG/DIN06/   70/   70
.A YKRV2 20190519 Z DH0648/TAIRP    70/UGIRP    13/PLIRP 30.04/UDIRP   180/USIRP    12/TWIRP -9999/WCIRP -9999
.E YKRV2 20190519 Z DH0642/TAIRG/DIN06/   70/   70
.E YKRV2 20190519 Z DH0642/PLIRG/DIN06/30.04/30.04
.E YKRV2 20190519 Z DH0642/USIRG/DIN06/   12/   12
.E YKRV2 20190519 Z DH0642/UDIRG/DIN06/  182/  180
.E YKRV2 20190519 Z DH0642/UGIRG/DIN06/   13/   13
.E YKTV2 20190519 Z DH0636/TAIRP/DIN06/   69/   69/   70/   70
.E YKTV2 20190519 Z DH0636/PLIRP/DIN06/30.02/30.01/30.01/30.01
.E YKTV2 20190519 Z DH0636/USIRP/DIN06/    6/    7/    7/    6
.E YKTV2 20190519 Z DH0636/UDIRP/DIN06/  168/  164/  171/  170
.E YKTV2 20190519 Z DH0636/UGIRP/DIN06/    8/    9/    8/    8
.E YKTV2 20190519 Z DH0636/TWIRP/DIN06/   70/   70/   70/   70
.A YKTV2 20190519 Z DH0642/TAIRG    69/UGIRG     9/PLIRG 30.01/UDIRG   164/USIRG     7/TWIRG    70/WCIRG 20100
.E DOMV2 20190519 Z DH0648/TAIRP/DIN06/   72/   71
.E DOMV2 20190519 Z DH0648/PLIRP/DIN06/30.04/30.04
.E DOMV2 20190519 Z DH0648/USIRP/DIN06/    8/    6
.E DOMV2 20190519 Z DH0648/UDIRP/DIN06/  156/  152
.E DOMV2 20190519 Z DH0648/UGIRP/DIN06/    9/    9
.E CRYV2 20190519 Z DH0648/TAIRP/DIN06/   71/   71
.E CRYV2 20190519 Z DH0648/PLIRP/DIN06/30.03/30.03
.E CRYV2 20190519 Z DH0648/USIRP/DIN06/    9/    9
.E CRYV2 20190519 Z DH0648/UDIRP/DIN06/  178/  181
.E CRYV2 20190519 Z DH0648/UGIRP/DIN06/   10/   11
.E SWPV2 20190519 Z DH0636/PLIRG/DIN06/30.03/30.03
.E SWPV2 20190519 Z DH0636/WCIRG/DIN06/23490/23500
.E SWPV2 20190519 Z DH0636/TWIRG/DIN06/   70/   70
.E WDSV2 20190519 Z DH0636/TAIRG/DIN06/   70/   70
.E WDSV2 20190519 Z DH0636/PLIRG/DIN06/30.01/30.01
.E WDSV2 20190519 Z DH0636/USIRG/DIN06/   10/   10
.E WDSV2 20190519 Z DH0636/UDIRG/DIN06/  172/  178
.E WDSV2 20190519 Z DH0636/UGIRG/DIN06/   12/   11
.E CHBV2 20190519 Z DH0636/TAIRG/DIN06/   68/   68
.E CHBV2 20190519 Z DH0636/PLIRG/DIN06/30.01/30.01
.E CHBV2 20190519 Z DH0636/USIRG/DIN06/    7/    7
.E CHBV2 20190519 Z DH0636/UDIRG/DIN06/  170/  179
.E CHBV2 20190519 Z DH0636/UGIRG/DIN06/    8/    8
.A CHYV2 20190519 Z DH0648/TAIRP    69/UGIRP    11/PLIRP 30.04/UDIRP   175/USIRP     8/TWIRP -9999/WCIRP -9999
.A MNPV2 20190519 Z DH0648/TAIRP    70/UGIRP     7/PLIRP 30.03/UDIRP   160/USIRP     5/TWIRP    72/WCIRP -9999
.E MNPV2 20190519 Z DH0636/TAIRG/DIN06/   70/   70
.E MNPV2 20190519 Z DH0636/PLIRG/DIN06/30.03/30.03
.E MNPV2 20190519 Z DH0636/USIRG/DIN06/    4/    6
.E MNPV2 20190519 Z DH0636/UDIRG/DIN06/  154/  152
.E MNPV2 20190519 Z DH0636/UGIRG/DIN06/    6/    7
.E MNPV2 20190519 Z DH0636/WCIRG/DIN06/20870/20890
.E MNPV2 20190519 Z DH0636/TWIRG/DIN06/   72/   72
.E DUKN7 20190519 Z DH0642/TAIRG/DIN06/   68/   68
.E DUKN7 20190519 Z DH0642/PLIRG/DIN06/30.05/30.04
.E DUKN7 20190519 Z DH0642/USIRG/DIN06/    6/    6
.E DUKN7 20190519 Z DH0642/UDIRG/DIN06/  144/  142
.E DUKN7 20190519 Z DH0642/UGIRG/DIN06/    6/    7
.E DUKN7 20190519 Z DH0642/TWIRG/DIN06/   64/   64
.E ORIN7 20190519 Z DH0630/TAIRG/DIN06/   69/   69/   69
.E ORIN7 20190519 Z DH0630/PLIRG/DIN06/30.06/30.06/30.06
.E ORIN7 20190519 Z DH0630/USIRG/DIN06/    3/    3/    4
.E ORIN7 20190519 Z DH0630/UDIRG/DIN06/  121/  126/  118
.E ORIN7 20190519 Z DH0630/UGIRG/DIN06/    4/    4/    4
.E ORIN7 20190519 Z DH0630/TWIRG/DIN06/   73/   73/   73
.E HCGN7 20190519 Z DH0636/TAIRG/DIN06/   73/   73/   73
.E HCGN7 20190519 Z DH0636/PLIRG/DIN06/30.06/30.06/30.06
.E HCGN7 20190519 Z DH0636/USIRG/DIN06/    4/    4/    5
.E HCGN7 20190519 Z DH0636/UDIRG/DIN06/  212/  205/  208
.E HCGN7 20190519 Z DH0636/UGIRG/DIN06/    6/    6/    6
.E HCGN7 20190519 Z DH0636/TWIRG/DIN06/   74/   74/   74
.A BFTN7 20190519 Z DH0648/TAIRP    73/UGIRP     6/PLIRP 30.08/UDIRP   214/USIRP     2/TWIRP    77/WCIRP -9999
.E WLON7 20190519 Z DH0636/TAIRG/DIN06/   70/   70
.E WLON7 20190519 Z DH0636/PLIRG/DIN06/30.06/30.06
.E WLON7 20190519 Z DH0636/TWIRG/DIN06/   77/   77
.A JMPN7 20190519 Z DH0642/TAIRG    73/UGIRG     4/PLIRG 30.06/UDIRG   251/USIRG     2/TWIRG    71/WCIRG -9999
.A MROS1 20190519 Z DH0648/TAIRP    74/UGIRP -9999/PLIRP 30.15/UDIRP -9999/USIRP -9999/TWIRP -9999/WCIRP -9999
.A CHTS1 20190519 Z DH0642/TAIRG    75/UGIRG     9/PLIRG 30.05/UDIRG   180/USIRG     5/TWIRG    77/WCIRG -9999
.E FPKG1 20190519 Z DH0636/TAIRG/DIN06/   74/   74
.E FPKG1 20190519 Z DH0636/PLIRG/DIN06/30.05/30.05
.E FPKG1 20190519 Z DH0636/USIRG/DIN06/    5/    4
.E FPKG1 20190519 Z DH0636/UDIRG/DIN06/  184/  173
.E FPKG1 20190519 Z DH0636/UGIRG/DIN06/    8/    7
.E FPKG1 20190519 Z DH0636/TWIRG/DIN06/   76/   76
.A FRDF1 20190519 Z DH0642/TAIRG    77/UGIRG -9999/PLIRG 30.05/UDIRG -9999/USIRG -9999/TWIRG    79/WCIRG -9999
.E NFDF1 20190519 Z DH0642/TAIRG/DIN06/   73/   72
.E NFDF1 20190519 Z DH0642/PLIRG/DIN06/30.09/30.09
.E NFDF1 20190519 Z DH0642/USIRG/DIN06/    4/    5
.E NFDF1 20190519 Z DH0642/UDIRG/DIN06/  181/  174
.E NFDF1 20190519 Z DH0642/UGIRG/DIN06/    5/    6
.E MYPF1 20190519 Z DH0636/TAIRG/DIN06/   74/   74/   74
.E MYPF1 20190519 Z DH0636/PLIRG/DIN06/30.03/30.03/30.03
.E MYPF1 20190519 Z DH0636/USIRG/DIN06/    5/    6/    4
.E MYPF1 20190519 Z DH0636/UDIRG/DIN06/  158/  158/  143
.E MYPF1 20190519 Z DH0636/UGIRG/DIN06/   10/    9/    8
.E MYPF1 20190519 Z DH0636/WCIRG/DIN06/50740/50820/50600
.E MYPF1 20190519 Z DH0636/TWIRG/DIN06/   79/   79/   79
.E DMSF1 20190519 Z DH0642/WCIRG/DIN06/42620/42240
.E DMSF1 20190519 Z DH0642/TWIRG/DIN06/   80/   80
.A LTJF1 20190519 Z DH0648/TAIRP    73/UGIRP -9999/PLIRP -9999/UDIRP -9999/USIRP -9999/TWIRP -9999/WCIRG -9999
.E BLIF1 20190519 Z DH0642/TAIRG/DIN06/   73/   73
.E BLIF1 20190519 Z DH0642/PLIRG/DIN06/30.06/30.06
.E BLIF1 20190519 Z DH0642/USIRG/DIN06/    4/    4
.E BLIF1 20190519 Z DH0642/UDIRG/DIN06/  179/  216
.E BLIF1 20190519 Z DH0642/UGIRG/DIN06/    6/    5
.E RCYF1 20190519 Z DH0642/WCIRG/DIN06/ 1060/ 1060
.E RCYF1 20190519 Z DH0642/TWIRG/DIN06/   81/   81
.A TRDF1 20190519 Z DH0648/TAIRP    76/UGIRP    11/PLIRP 30.04/UDIRP   124/USIRP     9/TWIRP    81/WCIRP -9999
.A TRDF1 20190519 Z DH0642/TAIRG    75/UGIRG    11/PLIRG 30.04/UDIRG   112/USIRG     7/TWIRG    81/WCIRG -9999
.A LKWF1 20190519 Z DH0648/TAIRP    79/UGIRP -9999/PLIRP 30.02/UDIRP -9999/USIRP -9999/TWIRP    81/WCIRP -9999
.A LKWF1 20190519 Z DH0642/TAIRG    79/UGIRG -9999/PLIRG 30.02/UDIRG -9999/USIRG -9999/TWIRG    81/WCIRG -9999
.E PEGF1 20190519 Z DH0636/TAIRG/DIN06/   80/   80
.E PEGF1 20190519 Z DH0636/PLIRG/DIN06/29.98/29.98
.E PEGF1 20190519 Z DH0636/USIRG/DIN06/   11/   11
.E PEGF1 20190519 Z DH0636/UDIRG/DIN06/   85/   85
.E PEGF1 20190519 Z DH0636/UGIRG/DIN06/   13/   15
.E PEGF1 20190519 Z DH0636/TWIRG/DIN06/   92/   92
.E VAKF1 20190519 Z DH0636/TAIRG/DIN06/   80/   80
.E VAKF1 20190519 Z DH0636/PLIRG/DIN06/29.96/29.96
.E VAKF1 20190519 Z DH0636/USIRG/DIN06/   10/    9
.E VAKF1 20190519 Z DH0636/UDIRG/DIN06/   70/   70
.E VAKF1 20190519 Z DH0636/UGIRG/DIN06/   12/   13
.E VAKF1 20190519 Z DH0636/TWIRG/DIN06/   84/   84
.E VCAF1 20190519 Z DH0642/TAIRG/DIN06/   80/   81
.E VCAF1 20190519 Z DH0642/PLIRG/DIN06/29.95/29.95
.E VCAF1 20190519 Z DH0642/TWIRG/DIN06/   85/   85
.E BARA9 20190519 Z DH0636/TAIRG/DIN06/   76/   76
.E BARA9 20190519 Z DH0636/PLIRG/DIN06/29.93/29.94
.E BARA9 20190519 Z DH0636/TWIRG/DIN06/   83/   83



USA.gov is the U.S. government's official web portal to all federal, state and local government web resources and services.